Time;durP1;ratioP1;P1;durP2;ratioP2;P2;SDS_P1;SDS_P2;PMS_P1;PMS_P2;Temp;Humidity;BMP_temperature;BMP_pressure;BME280_temperature;BME280_humidity;BME280_pressure;Samples;Min_cycle;Max_cycle;Signal;HPM_P1;HPM_P2
2023/01/17 00:01:26;;;;;;;3.72;1.40;;;;;;;7.27;81.31;98046.59;5048957;28;20068;-67
2023/01/17 00:12:05;;;;;;;5.28;1.35;;;;;;;7.36;80.35;98038.97;5032700;28;20107;-67
2023/01/17 00:14:31;;;;;;;5.47;1.60;;;;;;;7.46;80.17;98044.47;5033450;28;20043;-67
2023/01/17 00:16:56;;;;;;;5.75;1.30;;;;;;;7.29;80.52;98036.47;5032977;28;20049;-67
2023/01/17 01:33:52;;;;;;;7.28;2.20;;;;;;;7.09;82.30;98018.25;5035965;28;20088;-67
2023/01/17 01:36:18;;;;;;;5.22;2.15;;;;;;;7.04;82.16;98002.94;5034188;28;20025;-67
2023/01/17 01:38:44;;;;;;;6.05;2.00;;;;;;;6.90;83.11;97999.00;5036327;28;20458;-67
2023/01/17 01:41:10;;;;;;;6.20;2.13;;;;;;;7.11;82.54;98007.31;5036217;28;20475;-67
2023/01/17 01:43:49;;;;;;;8.48;2.20;;;;;;;7.02;82.68;98015.75;5050804;28;20102;-67
2023/01/17 01:46:29;;;;;;;7.00;2.42;;;;;;;7.14;82.25;98012.19;5036482;28;20095;-67
2023/01/17 01:49:18;;;;;;;6.57;2.40;;;;;;;6.89;83.66;97984.00;5036027;28;20069;-68
2023/01/17 01:51:48;;;;;;;8.63;2.40;;;;;;;7.08;82.63;97995.25;5050880;28;20033;-67
2023/01/17 01:54:22;;;;;;;7.10;2.20;;;;;;;7.09;82.21;97982.69;5050372;28;20040;-67
2023/01/17 01:56:51;;;;;;;8.30;2.65;;;;;;;7.06;83.52;98000.84;5035121;28;20028;-67
2023/01/17 01:59:19;;;;;;;7.20;2.65;;;;;;;7.04;83.60;98002.13;5051048;28;20041;-67
2023/01/17 02:01:46;;;;;;;7.50;2.85;;;;;;;7.13;83.11;97997.19;5051228;28;20021;-67
2023/01/17 02:04:12;;;;;;;7.55;2.60;;;;;;;6.97;84.08;97986.25;5050855;28;20104;-67
2023/01/17 02:06:42;;;;;;;8.55;2.40;;;;;;;7.12;83.14;97983.03;5035192;28;20033;-68
2023/01/17 02:09:10;;;;;;;8.68;2.28;;;;;;;7.02;83.78;97983.69;5035686;28;20460;-67
2023/01/17 02:11:37;;;;;;;9.07;3.17;;;;;;;6.85;84.58;97982.88;5036294;28;20057;-67
2023/01/17 02:14:03;;;;;;;7.00;2.83;;;;;;;6.91;84.45;97989.91;5036143;28;20039;-67
2023/01/17 02:16:43;;;;;;;10.05;3.60;;;;;;;7.08;83.61;97976.53;5035443;28;20118;-68
2023/01/17 02:19:33;;;;;;;8.20;3.90;;;;;;;6.95;83.98;97975.00;5051028;28;20072;-68
2023/01/17 02:22:23;;;;;;;12.52;5.53;;;;;;;7.05;83.57;97971.66;5050558;28;20022;-68
2023/01/17 02:25:01;;;;;;;13.05;7.00;;;;;;;6.96;83.04;97975.81;5072155;28;20071;-67
2023/01/17 02:27:41;;;;;;;13.80;7.57;;;;;;;6.94;82.80;97961.88;5036730;28;20025;-67
2023/01/17 02:30:28;;;;;;;17.23;6.07;;;;;;;7.28;82.21;97981.34;5039801;28;20106;-67
2023/01/17 02:33:01;;;;;;;12.98;5.35;;;;;;;7.35;81.75;97970.47;5034805;28;20033;-67
2023/01/17 02:35:29;;;;;;;12.38;4.20;;;;;;;7.20;82.27;97963.06;5048395;28;20160;-67
2023/01/17 02:38:21;;;;;;;10.10;3.83;;;;;;;7.14;82.39;97974.75;5035057;28;20403;-67
2023/01/17 02:40:54;;;;;;;5.60;2.90;;;;;;;7.13;82.34;97960.56;5035284;28;20028;-68
2023/01/17 02:43:22;;;;;;;5.25;2.15;;;;;;;6.87;83.99;97975.41;5035189;28;20021;-67
2023/01/17 02:45:48;;;;;;;7.30;2.92;;;;;;;6.89;83.53;97962.63;5036223;28;20052;-67
2023/01/17 02:48:19;;;;;;;10.45;3.20;;;;;;;7.25;82.11;97971.13;5038242;28;20033;-68
2023/01/17 02:51:24;;;;;;;9.48;3.15;;;;;;;7.29;81.54;97974.97;5037408;28;20035;-68
2023/01/17 02:53:52;;;;;;;5.22;2.55;;;;;;;6.94;82.33;97965.38;5049889;28;20048;-67
2023/01/17 02:56:46;;;;;;;6.95;2.53;;;;;;;7.13;81.80;97962.44;5050486;28;20025;-67
2023/01/17 02:59:28;;;;;;;7.30;2.80;;;;;;;7.13;81.77;97954.41;5051445;28;20184;-68
2023/01/17 03:02:08;;;;;;;6.93;2.88;;;;;;;7.06;82.36;97962.59;5035524;28;20025;-68
2023/01/17 03:05:13;;;;;;;9.45;2.80;;;;;;;6.86;82.15;97963.13;5036487;28;20027;-68
2023/01/17 03:07:40;;;;;;;7.72;3.00;;;;;;;6.90;82.52;97958.91;4992540;28;20038;-67
2023/01/17 03:10:08;;;;;;;6.53;2.70;;;;;;;6.81;82.85;97958.50;5039184;28;20064;-67
2023/01/17 03:12:37;;;;;;;9.48;3.00;;;;;;;6.74;83.74;97949.84;5034218;28;20025;-67
2023/01/17 03:15:03;;;;;;;9.43;3.00;;;;;;;6.59;83.76;97953.09;5034734;28;20033;-67
2023/01/17 03:17:31;;;;;;;9.55;3.30;;;;;;;6.95;82.48;97945.59;5034096;28;20056;-67
2023/01/17 03:19:57;;;;;;;8.15;2.80;;;;;;;6.81;82.65;97949.66;5034667;28;20515;-67
2023/01/17 03:22:23;;;;;;;7.07;3.10;;;;;;;7.07;81.82;97948.16;5033474;28;20049;-67
2023/01/17 03:24:49;;;;;;;6.25;2.97;;;;;;;6.93;82.40;97950.38;5032946;28;20550;-67
2023/01/17 03:27:14;;;;;;;7.50;3.10;;;;;;;6.92;81.61;97943.44;5034026;28;20120;-67
2023/01/17 03:29:39;;;;;;;9.48;2.92;;;;;;;7.00;81.85;97943.00;5049155;28;20036;-67
2023/01/17 03:32:05;;;;;;;9.02;3.20;;;;;;;7.17;80.94;97934.94;5033841;28;20037;-67
2023/01/17 03:34:30;;;;;;;8.90;3.25;;;;;;;7.19;80.90;97940.06;5032754;28;20057;-67
2023/01/17 03:36:56;;;;;;;6.47;2.92;;;;;;;7.11;80.69;97911.84;5056967;28;20101;-68
2023/01/17 03:39:21;;;;;;;6.93;3.00;;;;;;;6.97;81.17;97921.31;5053950;28;20037;-68
2023/01/17 03:41:47;;;;;;;7.28;3.22;;;;;;;7.15;80.74;97912.16;5040547;28;20061;-68
2023/01/17 03:44:12;;;;;;;5.97;2.53;;;;;;;6.87;81.17;97911.28;5037022;28;20045;-67
2023/01/17 03:46:38;;;;;;;7.13;3.30;;;;;;;7.00;81.57;97916.25;5036103;28;20033;-67
2023/01/17 03:49:03;;;;;;;6.63;2.92;;;;;;;6.93;81.61;97914.84;5050034;28;20048;-67
2023/01/17 03:51:28;;;;;;;10.80;3.70;;;;;;;7.13;81.48;97901.72;5033356;28;20021;-67
2023/01/17 03:53:54;;;;;;;7.93;3.10;;;;;;;7.11;81.21;97900.34;5031878;28;20037;-67
2023/01/17 03:56:19;;;;;;;5.85;2.83;;;;;;;6.97;80.74;97902.59;5033603;28;20112;-67
2023/01/17 03:58:45;;;;;;;7.85;3.35;;;;;;;6.88;82.18;97899.53;5033687;28;20029;-68
2023/01/17 04:01:11;;;;;;;6.22;3.33;;;;;;;6.80;81.70;97875.91;5031384;28;20033;-68
2023/01/17 04:03:36;;;;;;;8.88;2.95;;;;;;;7.08;80.83;97893.63;5032648;28;20053;-68
2023/01/17 04:06:02;;;;;;;8.10;3.00;;;;;;;7.02;80.00;97895.44;5048238;28;20484;-67
2023/01/17 04:08:28;;;;;;;6.18;2.67;;;;;;;7.11;80.44;97887.00;5038810;28;20379;-68
2023/01/17 04:10:53;;;;;;;7.40;3.05;;;;;;;6.85;80.94;97891.19;5053150;28;20120;-68
2023/01/17 04:13:19;;;;;;;6.63;3.10;;;;;;;6.80;81.86;97882.06;5052216;28;20116;-67
2023/01/17 04:15:47;;;;;;;8.25;2.85;;;;;;;7.01;80.73;97880.44;5070513;28;20024;-67
2023/01/17 04:18:15;;;;;;;8.55;3.08;;;;;;;7.08;80.99;97877.59;5071825;28;20036;-67
2023/01/17 04:20:40;;;;;;;6.28;2.85;;;;;;;6.88;80.11;97864.78;5073237;28;20028;-67
2023/01/17 04:23:06;;;;;;;9.38;2.92;;;;;;;7.10;79.72;97867.47;5055864;28;20035;-68
2023/01/17 04:25:32;;;;;;;6.72;3.58;;;;;;;7.03;80.48;97864.97;5050924;28;20037;-68
2023/01/17 04:27:59;;;;;;;7.13;2.72;;;;;;;7.12;80.07;97873.38;5052876;28;20039;-68
2023/01/17 04:30:25;;;;;;;8.95;2.72;;;;;;;7.17;79.44;97875.31;5051892;28;20451;-67
2023/01/17 04:32:51;;;;;;;8.20;3.15;;;;;;;7.28;79.51;97863.66;5052514;28;20118;-67
2023/01/17 04:35:16;;;;;;;7.47;2.85;;;;;;;7.25;79.00;97865.00;5064104;28;20056;-68
2023/01/17 04:37:42;;;;;;;8.10;3.10;;;;;;;7.11;78.87;97846.88;5071344;28;20088;-68
2023/01/17 04:40:09;;;;;;;9.35;3.28;;;;;;;7.22;79.13;97862.81;5074867;28;20056;-68
2023/01/17 04:42:35;;;;;;;8.82;2.95;;;;;;;7.17;78.88;97856.59;5070631;28;20020;-68
2023/01/17 04:45:01;;;;;;;6.30;3.17;;;;;;;7.06;78.78;97861.81;5071793;28;20520;-67
2023/01/17 04:47:26;;;;;;;8.73;3.30;;;;;;;7.11;78.89;97857.56;5072669;28;20028;-67
2023/01/17 04:49:52;;;;;;;9.65;3.40;;;;;;;6.78;78.81;97819.19;5072664;28;20032;-67
2023/01/17 04:52:19;;;;;;;8.23;3.30;;;;;;;7.19;78.97;97854.47;5076634;28;20058;-67
2023/01/17 04:54:48;;;;;;;7.75;3.40;;;;;;;7.26;78.17;97845.19;5093097;28;20054;-67
2023/01/17 04:57:15;;;;;;;7.72;3.05;;;;;;;7.13;78.74;97834.09;5084954;28;20052;-67
2023/01/17 04:59:40;;;;;;;7.45;3.38;;;;;;;7.30;77.87;97840.97;5079263;28;20028;-67
2023/01/17 05:02:06;;;;;;;8.50;3.20;;;;;;;7.18;78.60;97837.59;5063586;28;20039;-67
2023/01/17 05:04:31;;;;;;;10.23;3.17;;;;;;;6.94;77.52;97836.25;5077352;28;20032;-66
2023/01/17 05:06:57;;;;;;;5.57;3.10;;;;;;;7.27;77.48;97827.28;5075313;28;20169;-66
2023/01/17 05:09:22;;;;;;;6.47;2.95;;;;;;;6.72;78.60;97844.25;5074962;28;20028;-66
2023/01/17 05:11:47;;;;;;;8.95;3.35;;;;;;;7.03;78.59;97835.56;5073380;28;20039;-67
2023/01/17 05:14:13;;;;;;;7.53;2.85;;;;;;;7.16;77.52;97846.97;5075341;28;20465;-67
2023/01/17 05:16:38;;;;;;;7.07;3.30;;;;;;;7.18;77.48;97848.31;5074102;28;20587;-67
2023/01/17 05:19:04;;;;;;;8.45;3.60;;;;;;;7.07;77.63;97844.69;5074182;28;20035;-67
2023/01/17 05:21:30;;;;;;;8.10;3.40;;;;;;;7.00;78.07;97835.25;5073950;28;20035;-67
2023/01/17 05:23:55;;;;;;;7.57;3.25;;;;;;;7.17;76.79;97845.88;5075527;28;20119;-67
2023/01/17 05:26:21;;;;;;;6.53;3.60;;;;;;;7.05;77.20;97843.31;5073396;28;20064;-67
2023/01/17 05:28:46;;;;;;;8.73;3.47;;;;;;;7.10;77.19;97838.06;5075534;28;20021;-66
2023/01/17 05:31:12;;;;;;;9.57;3.38;;;;;;;6.83;77.13;97840.66;5074219;28;20032;-67
2023/01/17 05:33:37;;;;;;;6.30;3.47;;;;;;;7.07;77.12;97820.63;5077237;28;20041;-67
2023/01/17 05:36:03;;;;;;;9.30;3.60;;;;;;;6.97;77.41;97836.56;5042118;28;20530;-67
2023/01/17 05:38:29;;;;;;;8.75;3.42;;;;;;;7.07;76.77;97830.53;5075919;28;20131;-67
2023/01/17 05:40:58;;;;;;;8.57;3.72;;;;;;;7.13;76.91;97839.44;5076366;28;20038;-67
2023/01/17 05:43:24;;;;;;;8.32;3.60;;;;;;;7.01;76.56;97826.97;5076152;28;20039;-67
2023/01/17 05:45:50;;;;;;;6.93;3.35;;;;;;;7.14;76.66;97827.66;5075448;28;20025;-67
2023/01/17 05:48:15;;;;;;;6.78;2.97;;;;;;;6.70;76.65;97799.06;5075464;28;20020;-67
2023/01/17 05:50:40;;;;;;;8.23;3.08;;;;;;;6.89;77.15;97812.94;5074740;28;20029;-67
2023/01/17 05:53:09;;;;;;;5.68;2.80;;;;;;;6.92;77.12;97817.81;5075004;28;20017;-67
2023/01/17 05:55:35;;;;;;;7.40;3.63;;;;;;;6.96;77.11;97824.25;5075739;28;20028;-67
2023/01/17 05:58:01;;;;;;;9.27;3.70;;;;;;;7.02;76.55;97827.81;5074656;28;20025;-67
2023/01/17 06:00:26;;;;;;;7.70;3.20;;;;;;;6.95;76.88;97819.16;5074678;28;20028;-67
2023/01/17 06:02:53;;;;;;;8.23;3.42;;;;;;;6.88;76.89;97824.69;5074091;28;20041;-67
2023/01/17 06:05:21;;;;;;;7.90;2.90;;;;;;;6.86;77.13;97824.13;5074252;28;20063;-67
2023/01/17 06:07:47;;;;;;;9.82;3.60;;;;;;;6.85;77.04;97827.84;5075672;28;20406;-67
2023/01/17 06:10:14;;;;;;;6.65;3.63;;;;;;;6.67;77.16;97820.13;5070639;28;20032;-67
2023/01/17 06:12:40;;;;;;;6.55;3.53;;;;;;;6.90;77.11;97813.75;5093284;28;20047;-68
2023/01/17 06:15:06;;;;;;;9.18;3.95;;;;;;;7.03;76.61;97814.19;5079301;28;20028;-68
2023/01/17 06:17:32;;;;;;;11.13;3.60;;;;;;;6.75;77.16;97801.00;5076695;28;20063;-67
2023/01/17 06:19:57;;;;;;;6.82;3.30;;;;;;;7.13;75.61;97813.50;5083672;28;20379;-67
2023/01/17 06:22:23;;;;;;;7.63;3.58;;;;;;;7.00;76.20;97825.38;5074882;28;20058;-67
2023/01/17 06:24:48;;;;;;;9.93;4.00;;;;;;;7.14;75.39;97809.75;5076344;28;20459;-68
2023/01/17 06:27:14;;;;;;;9.50;3.88;;;;;;;7.02;75.47;97823.28;5074672;28;20593;-68
2023/01/17 06:29:39;;;;;;;8.55;4.18;;;;;;;7.05;76.02;97820.09;5074480;28;20035;-68
2023/01/17 06:32:05;;;;;;;7.18;3.28;;;;;;;6.86;76.16;97805.44;5075148;28;20124;-68
2023/01/17 06:34:30;;;;;;;8.35;4.10;;;;;;;7.01;76.03;97815.47;5074747;28;20028;-68
2023/01/17 06:36:56;;;;;;;9.00;4.00;;;;;;;6.91;75.82;97802.81;5073543;28;20017;-68
2023/01/17 06:39:22;;;;;;;10.75;4.30;;;;;;;7.15;75.86;97827.44;5073616;28;20008;-67
2023/01/17 06:41:47;;;;;;;11.23;3.92;;;;;;;7.01;75.90;97824.31;5073722;28;20025;-67
2023/01/17 06:44:13;;;;;;;8.57;4.20;;;;;;;7.10;75.75;97824.69;5055865;28;20055;-67
2023/01/17 06:46:39;;;;;;;6.65;4.13;;;;;;;6.92;76.50;97828.50;5073631;28;20055;-67
2023/01/17 06:49:05;;;;;;;7.22;3.95;;;;;;;7.16;75.33;97837.06;5056773;28;20059;-67
2023/01/17 06:51:30;;;;;;;8.38;3.90;;;;;;;7.02;75.90;97833.97;5074638;28;20099;-67
2023/01/17 06:53:56;;;;;;;12.75;4.28;;;;;;;7.19;75.01;97827.75;5074218;28;20043;-67
2023/01/17 06:56:21;;;;;;;8.25;4.18;;;;;;;6.79;76.25;97827.00;5073735;28;20081;-68
2023/01/17 06:58:50;;;;;;;8.98;4.30;;;;;;;7.01;75.95;97821.63;5073136;28;20549;-67
2023/01/17 07:01:17;;;;;;;10.57;3.75;;;;;;;6.73;76.49;97816.47;5073652;28;20507;-67
2023/01/17 07:03:42;;;;;;;9.15;4.03;;;;;;;6.81;75.78;97830.22;5073833;28;20165;-67
2023/01/17 07:06:08;;;;;;;9.15;4.65;;;;;;;6.72;75.30;97802.31;5074003;28;20062;-67
2023/01/17 07:08:34;;;;;;;8.88;4.07;;;;;;;6.82;75.49;97833.69;5073835;28;20028;-68
2023/01/17 07:11:06;;;;;;;9.90;4.60;;;;;;;7.09;75.19;97838.31;5072317;28;20039;-68
2023/01/17 07:13:36;;;;;;;11.07;4.22;;;;;;;6.92;75.19;97822.31;5072089;28;20039;-67
2023/01/17 07:16:03;;;;;;;9.25;4.55;;;;;;;7.00;74.95;97820.03;5073575;28;20205;-68
2023/01/17 07:18:30;;;;;;;7.57;4.30;;;;;;;7.00;74.18;97809.34;5071610;28;20028;-67
2023/01/17 07:20:55;;;;;;;9.25;4.45;;;;;;;7.01;74.42;97824.31;5071555;28;20051;-67
2023/01/17 07:23:22;;;;;;;9.00;4.68;;;;;;;7.09;74.60;97816.94;5073826;28;20483;-67
2023/01/17 07:25:58;;;;;;;9.05;4.00;;;;;;;6.94;75.17;97825.56;5072316;28;20028;-67
2023/01/17 07:28:25;;;;;;;7.32;3.75;;;;;;;6.90;75.56;97829.78;5078743;28;20013;-67
2023/01/17 07:30:51;;;;;;;8.90;4.22;;;;;;;7.10;74.71;97826.56;5093657;28;20013;-67
2023/01/17 07:33:17;;;;;;;9.05;4.60;;;;;;;7.00;74.81;97832.59;5085334;28;20028;-67
2023/01/17 07:35:43;;;;;;;10.95;4.65;;;;;;;6.92;74.49;97835.69;5076686;28;20028;-67
2023/01/17 07:38:17;;;;;;;9.07;4.70;;;;;;;7.09;74.05;97841.00;5077694;28;20044;-67
2023/01/17 07:40:43;;;;;;;8.55;4.35;;;;;;;6.96;74.52;97845.66;5075448;28;20034;-67
2023/01/17 07:43:12;;;;;;;8.27;4.30;;;;;;;6.70;74.35;97787.59;5056001;28;20032;-67
2023/01/17 07:45:49;;;;;;;12.35;4.93;;;;;;;7.00;74.12;97830.72;5071910;28;20494;-67
2023/01/17 07:48:16;;;;;;;9.38;4.60;;;;;;;7.14;73.95;97846.38;5073326;28;20095;-67
2023/01/17 07:50:42;;;;;;;9.80;4.35;;;;;;;7.04;74.31;97841.72;5074964;28;20028;-67
2023/01/17 07:53:15;;;;;;;11.30;5.07;;;;;;;7.06;73.75;97837.75;5075012;28;20025;-67
2023/01/17 07:55:41;;;;;;;8.70;4.95;;;;;;;7.03;73.84;97850.81;5074838;28;20459;-67
2023/01/17 07:58:06;;;;;;;9.60;4.90;;;;;;;7.10;73.09;97848.75;5074763;28;20033;-67
2023/01/17 08:00:32;;;;;;;11.70;5.05;;;;;;;7.03;74.14;97851.63;5054879;28;20452;-67
2023/01/17 08:02:58;;;;;;;8.13;4.07;;;;;;;6.80;73.22;97817.09;5074842;28;20491;-67
2023/01/17 08:05:24;;;;;;;8.45;4.75;;;;;;;7.23;73.49;97855.59;5072777;28;20024;-67
2023/01/17 08:07:50;;;;;;;11.05;6.18;;;;;;;7.35;73.04;97850.94;5073050;28;20366;-67
2023/01/17 08:10:16;;;;;;;12.77;5.50;;;;;;;7.25;73.27;97850.78;5073277;28;20039;-67
2023/01/17 08:12:46;;;;;;;9.80;4.85;;;;;;;7.01;74.10;97853.72;5073589;28;20039;-67
2023/01/17 08:15:13;;;;;;;10.77;5.30;;;;;;;7.14;73.46;97833.81;5072641;28;20043;-67
2023/01/17 08:17:38;;;;;;;10.18;4.97;;;;;;;7.04;74.22;97850.53;5071664;28;20075;-67
2023/01/17 08:20:05;;;;;;;10.32;5.05;;;;;;;7.18;73.50;97850.97;5071701;28;20041;-67
2023/01/17 08:22:31;;;;;;;10.95;5.15;;;;;;;7.23;73.35;97852.91;5072013;28;20024;-67
2023/01/17 08:24:56;;;;;;;7.38;5.28;;;;;;;6.92;74.35;97849.03;5072239;28;20159;-67
2023/01/17 08:27:22;;;;;;;8.32;4.65;;;;;;;7.05;73.25;97843.31;5072283;28;20066;-67
2023/01/17 08:29:48;;;;;;;11.73;4.93;;;;;;;7.12;73.80;97835.13;5072142;28;20021;-67
2023/01/17 08:32:14;;;;;;;7.63;4.75;;;;;;;6.93;73.97;97837.31;5070187;28;20054;-67
2023/01/17 08:34:40;;;;;;;9.27;5.43;;;;;;;6.94;74.26;97842.41;5070712;28;20032;-67
2023/01/17 08:37:06;;;;;;;11.05;6.88;;;;;;;7.07;73.55;97839.34;5070975;28;20402;-67
2023/01/17 08:39:32;;;;;;;8.60;5.20;;;;;;;6.55;75.45;97834.41;5072042;28;20033;-67
2023/01/17 08:41:57;;;;;;;11.68;5.65;;;;;;;7.03;74.28;97848.94;5071894;28;20170;-67
2023/01/17 08:44:22;;;;;;;9.38;4.95;;;;;;;7.27;73.03;97843.31;5072503;28;20094;-67
2023/01/17 08:46:48;;;;;;;9.70;5.80;;;;;;;7.25;73.33;97837.41;5071940;28;20159;-67
2023/01/17 08:49:14;;;;;;;9.40;5.20;;;;;;;7.25;73.76;97848.94;5079422;28;20040;-67
2023/01/17 08:51:39;;;;;;;9.32;5.13;;;;;;;7.34;73.23;97841.25;5093553;28;20017;-67
2023/01/17 08:54:05;;;;;;;8.20;5.10;;;;;;;7.43;72.54;97834.41;5083917;28;20020;-67
2023/01/17 08:56:30;;;;;;;9.27;5.45;;;;;;;7.23;73.05;97828.84;5073148;28;20024;-67
2023/01/17 08:58:56;;;;;;;9.35;5.55;;;;;;;7.35;73.84;97847.41;5074986;28;20024;-67
2023/01/17 09:01:21;;;;;;;13.00;5.80;;;;;;;7.24;73.94;97851.84;5073243;28;20070;-67
2023/01/17 09:03:50;;;;;;;10.05;5.32;;;;;;;7.10;74.97;97837.25;5072805;28;20044;-67
2023/01/17 09:06:16;;;;;;;11.10;5.47;;;;;;;6.84;75.68;97836.94;5070661;28;20031;-67
2023/01/17 09:08:45;;;;;;;10.05;4.75;;;;;;;6.98;75.71;97838.16;5071733;28;20066;-67
2023/01/17 09:11:14;;;;;;;10.15;5.38;;;;;;;7.21;74.70;97837.09;5070128;28;20032;-67
2023/01/17 09:13:40;;;;;;;8.85;4.95;;;;;;;6.82;75.33;97839.03;5070360;28;20046;-67
2023/01/17 09:16:06;;;;;;;10.38;5.10;;;;;;;7.05;75.71;97846.00;5073270;28;20455;-67
2023/01/17 09:18:33;;;;;;;7.88;4.93;;;;;;;6.68;76.60;97833.25;5071320;28;20158;-67
2023/01/17 09:21:07;;;;;;;9.85;5.45;;;;;;;6.87;75.60;97835.63;5071502;28;20150;-67
2023/01/17 09:23:33;;;;;;;10.50;5.78;;;;;;;6.97;75.37;97831.22;5072156;28;20033;-68
2023/01/17 09:25:58;;;;;;;12.00;5.80;;;;;;;7.05;75.09;97827.28;5072330;28;20399;-67
2023/01/17 09:28:25;;;;;;;11.32;5.72;;;;;;;7.13;74.84;97824.19;5071439;28;20024;-67
2023/01/17 09:30:52;;;;;;;9.15;5.30;;;;;;;6.83;75.21;97796.03;5072176;28;20563;-67
2023/01/17 09:33:18;;;;;;;11.05;5.70;;;;;;;7.13;74.52;97826.06;5074099;28;20032;-67
2023/01/17 09:35:44;;;;;;;8.65;5.35;;;;;;;7.27;74.72;97837.97;5073169;28;20123;-67
2023/01/17 09:38:11;;;;;;;11.73;6.57;;;;;;;7.06;75.05;97835.06;5073130;28;20052;-67
2023/01/17 09:40:43;;;;;;;14.68;7.75;;;;;;;7.26;74.33;97825.69;5072333;28;20036;-67
2023/01/17 09:43:27;;;;;;;15.43;7.60;;;;;;;7.30;73.97;97834.81;5071277;28;20086;-67
2023/01/17 09:45:53;;;;;;;18.38;9.23;;;;;;;7.13;74.10;97828.72;5076473;28;20052;-67
2023/01/17 09:48:36;;;;;;;29.13;12.32;;;;;;;7.37;73.97;97827.41;5073288;28;20415;-67
2023/01/17 09:51:17;;;;;;;12.48;6.88;;;;;;;7.07;74.87;97831.34;5075704;28;20032;-67
2023/01/17 09:53:43;;;;;;;11.82;7.13;;;;;;;6.72;75.67;97814.84;5076920;28;20028;-67
2023/01/17 09:56:31;;;;;;;13.13;7.93;;;;;;;6.94;74.78;97831.72;5073837;28;20440;-67
2023/01/17 09:59:09;;;;;;;17.13;8.57;;;;;;;7.20;74.54;97827.47;5069014;28;20047;-67
2023/01/17 10:01:56;;;;;;;15.25;8.05;;;;;;;7.32;74.21;97832.69;5074829;28;20029;-67
2023/01/17 10:04:55;;;;;;;18.38;11.27;;;;;;;7.21;74.08;97818.38;5073603;28;20028;-67
2023/01/17 10:07:50;;;;;;;13.07;6.90;;;;;;;6.90;74.63;97813.75;5074964;28;20457;-67
2023/01/17 10:10:34;;;;;;;17.10;10.17;;;;;;;6.98;74.29;97821.31;5073632;28;20024;-67
2023/01/17 10:13:44;;;;;;;10.38;6.95;;;;;;;6.87;75.06;97806.22;5074857;28;20035;-67
2023/01/17 10:16:27;;;;;;;10.40;6.35;;;;;;;6.95;75.11;97793.22;5064118;28;20053;-67
2023/01/17 10:19:36;;;;;;;10.00;5.80;;;;;;;6.47;76.75;97800.09;5076967;28;20085;-67
2023/01/17 10:22:32;;;;;;;10.95;6.03;;;;;;;6.94;76.97;97796.97;5076907;28;20078;-67
2023/01/17 10:25:00;;;;;;;12.13;6.72;;;;;;;6.76;77.29;97786.59;5074659;28;20028;-67
2023/01/17 10:27:34;;;;;;;9.38;6.35;;;;;;;6.61;77.50;97781.06;5074243;28;20047;-67
2023/01/17 10:30:20;;;;;;;10.98;6.00;;;;;;;6.43;77.91;97776.81;5073396;28;20020;-67
2023/01/17 10:32:48;;;;;;;8.98;5.85;;;;;;;6.73;76.60;97777.22;5073472;28;20507;-67
2023/01/17 10:35:21;;;;;;;9.57;6.13;;;;;;;6.66;76.95;97775.78;5074405;28;20036;-67
2023/01/17 10:37:50;;;;;;;10.68;6.13;;;;;;;6.77;76.58;97777.50;5074147;28;20028;-67
2023/01/17 10:40:18;;;;;;;11.77;6.50;;;;;;;6.81;76.58;97773.28;5074378;28;20067;-67
2023/01/17 10:43:26;;;;;;;10.30;5.70;;;;;;;6.69;76.76;97762.72;5074072;28;20032;-67
2023/01/17 10:45:55;;;;;;;8.00;4.40;;;;;;;6.58;76.96;97769.00;5073913;28;20032;-67
2023/01/17 10:48:43;;;;;;;9.63;5.18;;;;;;;6.52;77.25;97760.13;5073684;28;20239;-67
2023/01/17 10:51:29;;;;;;;12.68;7.00;;;;;;;6.95;75.89;97755.00;5074237;28;20031;-67
2023/01/17 10:54:13;;;;;;;9.70;6.55;;;;;;;6.94;75.95;97758.72;5072546;28;20158;-67
2023/01/17 10:56:40;;;;;;;9.15;6.90;;;;;;;6.81;76.46;97752.69;5073139;28;20379;-67
2023/01/17 10:59:08;;;;;;;9.20;6.57;;;;;;;6.76;77.40;97760.69;5073969;28;20029;-67
2023/01/17 11:01:33;;;;;;;11.95;7.20;;;;;;;6.68;77.31;97750.41;5073578;28;20040;-67
2023/01/17 11:03:59;;;;;;;9.98;6.85;;;;;;;6.48;79.23;97742.16;5073521;28;20025;-67
2023/01/17 11:06:26;;;;;;;9.63;6.55;;;;;;;6.54;79.06;97755.31;5072361;28;20041;-67
2023/01/17 11:08:54;;;;;;;12.60;7.43;;;;;;;6.71;79.13;97749.09;5073538;28;20100;-67
2023/01/17 11:11:22;;;;;;;11.90;7.65;;;;;;;6.52;79.86;97740.59;5072188;28;20078;-67
2023/01/17 11:13:49;;;;;;;13.05;7.75;;;;;;;6.65;79.62;97744.75;5075212;28;20028;-67
2023/01/17 11:16:21;;;;;;;13.10;8.82;;;;;;;6.96;78.53;97746.75;5073833;28;20376;-67
2023/01/17 11:19:03;;;;;;;13.45;8.93;;;;;;;6.73;79.19;97741.66;5074954;28;20036;-67
2023/01/17 11:21:29;;;;;;;13.93;9.60;;;;;;;6.76;79.76;97717.13;5073351;28;20119;-68
2023/01/17 11:23:56;;;;;;;12.18;8.95;;;;;;;6.67;81.32;97734.63;5072323;28;20124;-67
2023/01/17 11:26:23;;;;;;;12.27;8.25;;;;;;;6.65;81.57;97732.19;5072975;28;20093;-67
2023/01/17 11:28:51;;;;;;;13.93;9.30;;;;;;;6.29;84.07;97725.59;5072177;28;20020;-67
2023/01/17 11:31:16;;;;;;;12.40;8.85;;;;;;;6.65;82.27;97715.38;5073144;28;20028;-67
2023/01/17 11:33:52;;;;;;;12.27;9.15;;;;;;;6.38;83.93;97718.78;5074205;28;20029;-67
2023/01/17 11:36:28;;;;;;;13.80;9.15;;;;;;;6.52;83.81;97706.69;5073888;28;20051;-67
2023/01/17 11:39:06;;;;;;;13.60;9.65;;;;;;;6.86;81.50;97708.41;5074155;28;20406;-67
2023/01/17 11:41:33;;;;;;;14.60;8.88;;;;;;;6.70;82.72;97708.22;5071841;28;20482;-68
2023/01/17 11:44:00;;;;;;;13.23;9.07;;;;;;;6.20;86.28;97692.41;5073282;28;20086;-67
2023/01/17 11:46:28;;;;;;;13.35;9.75;;;;;;;6.25;87.01;97700.44;5071557;28;20036;-67
2023/01/17 11:48:59;;;;;;;16.42;10.02;;;;;;;6.52;84.01;97674.66;5055223;28;20078;-67
2023/01/17 11:51:29;;;;;;;12.50;8.43;;;;;;;5.98;87.47;97679.81;5070676;28;20036;-67
2023/01/17 11:54:06;;;;;;;11.65;8.52;;;;;;;6.26;87.64;97688.75;5072945;28;20024;-67
2023/01/17 11:56:35;;;;;;;14.05;8.82;;;;;;;6.16;88.65;97677.91;5071336;28;20043;-67
2023/01/17 11:59:13;;;;;;;14.23;8.85;;;;;;;6.05;89.83;97679.63;5073028;28;20158;-67
2023/01/17 12:01:44;;;;;;;12.40;8.82;;;;;;;5.96;90.97;97676.59;5071433;28;20513;-67
2023/01/17 12:04:57;;;;;;;11.95;8.25;;;;;;;5.88;92.71;97672.44;5073182;28;20028;-67
2023/01/17 12:07:37;;;;;;;11.35;7.45;;;;;;;6.02;90.34;97650.75;5054289;28;20044;-67
2023/01/17 12:10:15;;;;;;;14.00;7.45;;;;;;;6.11;90.77;97668.78;5072692;28;20505;-67
2023/01/17 12:15:31;;;;;;;10.52;6.55;;;;;;;5.92;92.68;97655.94;5072992;28;20415;-67
2023/01/17 12:18:10;;;;;;;9.75;6.35;;;;;;;6.24;89.16;97651.59;5071289;28;20040;-67
2023/01/17 12:21:13;;;;;;;8.18;6.30;;;;;;;6.24;89.90;97656.13;5073119;28;20075;-67
2023/01/17 12:23:48;;;;;;;11.25;5.72;;;;;;;5.91;93.11;97662.34;5071793;28;20028;-67
2023/01/17 12:26:26;;;;;;;7.43;5.28;;;;;;;6.06;90.79;97652.72;5072676;28;20395;-67
2023/01/17 12:28:51;;;;;;;7.65;5.63;;;;;;;5.80;93.35;97648.84;5072649;28;20020;-67
2023/01/17 12:31:35;;;;;;;7.75;5.70;;;;;;;6.18;91.02;97646.44;5072813;28;20024;-67
2023/01/17 12:34:26;;;;;;;8.07;5.15;;;;;;;5.89;92.51;97644.72;5072950;28;20031;-67
2023/01/17 12:37:00;;;;;;;7.78;5.40;;;;;;;5.84;92.49;97633.16;5072536;28;20024;-68
2023/01/17 12:39:45;;;;;;;7.65;5.22;;;;;;;5.49;94.85;97623.59;5070830;28;20078;-67
2023/01/17 12:42:17;;;;;;;8.82;4.82;;;;;;;5.52;96.20;97633.78;5071486;28;20036;-67
2023/01/17 12:44:50;;;;;;;9.73;4.63;;;;;;;5.34;96.92;97634.03;5071656;28;20031;-68
2023/01/17 12:47:18;;;;;;;11.60;6.75;;;;;;;5.52;95.45;97616.97;5071161;28;20399;-67
2023/01/17 12:50:14;;;;;;;24.80;13.20;;;;;;;5.56;96.67;97628.75;5073021;28;20029;-67
2023/01/17 12:52:39;;;;;;;;;;;;;;;5.80;95.79;97624.03;5073091;28;20032;-67
2023/01/17 12:55:13;;;;;;;12.02;6.65;;;;;;;5.66;96.23;97620.91;5072184;28;20290;-67
2023/01/17 12:57:46;;;;;;;59.90;19.30;;;;;;;5.70;94.47;97622.03;5072065;28;20074;-68
2023/01/17 13:00:19;;;;;;;24.15;21.65;;;;;;;5.74;94.85;97617.03;5071888;28;20081;-67
2023/01/17 13:03:23;;;;;;;10.25;6.50;;;;;;;5.58;96.04;97611.47;5072530;28;20445;-68
2023/01/17 13:05:50;;;;;;;6.90;4.13;;;;;;;5.48;96.19;97592.66;5074049;28;20031;-67
2023/01/17 13:08:34;;;;;;;4.82;3.40;;;;;;;5.62;97.33;97611.78;5072078;28;20025;-67
2023/01/17 13:10:59;;;;;;;5.00;3.40;;;;;;;5.64;96.68;97607.00;5072115;28;20035;-67
2023/01/17 13:13:28;;;;;;;4.47;3.45;;;;;;;5.68;96.22;97610.00;5072097;28;20020;-67
2023/01/17 13:16:03;;;;;;;6.00;3.28;;;;;;;5.20;99.05;97593.59;5070543;28;20104;-67
2023/01/17 13:18:32;;;;;;;4.88;3.88;;;;;;;5.67;96.25;97609.19;5072825;28;20055;-68
2023/01/17 13:21:24;;;;;;;3.92;3.40;;;;;;;5.45;98.24;97597.66;5076764;28;20107;-67